sensor_id;sensor_type;location;lat;lon;timestamp;P1;durP1;ratioP1;P2;durP2;ratioP2
23222;SDS011;11780;13.904;100.620;2022-08-19T00:02:08;288.90;;;267.30;;
23222;SDS011;11780;13.904;100.620;2022-08-19T00:04:38;37.97;;;34.95;;
23222;SDS011;11780;13.904;100.620;2022-08-19T00:07:09;160.82;;;149.63;;
23222;SDS011;11780;13.904;100.620;2022-08-19T00:09:39;512.10;;;476.00;;
23222;SDS011;11780;13.904;100.620;2022-08-19T00:12:09;437.40;;;408.10;;
23222;SDS011;11780;13.904;100.620;2022-08-19T00:14:39;44.20;;;40.33;;
23222;SDS011;11780;13.904;100.620;2022-08-19T00:17:09;34.35;;;30.88;;
23222;SDS011;11780;13.904;100.620;2022-08-19T00:19:40;74.30;;;68.05;;
23222;SDS011;11780;13.904;100.620;2022-08-19T00:22:10;18.58;;;8.63;;
23222;SDS011;11780;13.904;100.620;2022-08-19T00:24:41;120.78;;;112.07;;
23222;SDS011;11780;13.904;100.620;2022-08-19T00:27:17;242.85;;;227.23;;
23222;SDS011;11780;13.904;100.620;2022-08-19T00:29:53;310.02;;;290.65;;
23222;SDS011;11780;13.904;100.620;2022-08-19T00:32:23;528.30;;;493.23;;
23222;SDS011;11780;13.904;100.620;2022-08-19T00:34:56;416.80;;;389.65;;
23222;SDS011;11780;13.904;100.620;2022-08-19T00:37:27;497.50;;;465.38;;
23222;SDS011;11780;13.904;100.620;2022-08-19T00:39:57;311.00;;;291.85;;
23222;SDS011;11780;13.904;100.620;2022-08-19T00:42:28;184.75;;;172.43;;
23222;SDS011;11780;13.904;100.620;2022-08-19T00:44:58;253.25;;;236.98;;
23222;SDS011;11780;13.904;100.620;2022-08-19T00:47:29;439.17;;;410.73;;
23222;SDS011;11780;13.904;100.620;2022-08-19T00:49:59;270.77;;;252.15;;
23222;SDS011;11780;13.904;100.620;2022-08-19T00:52:30;707.63;;;661.30;;
23222;SDS011;11780;13.904;100.620;2022-08-19T00:55:05;1023.63;;;952.97;;
23222;SDS011;11780;13.904;100.620;2022-08-19T00:57:42;1018.22;;;945.80;;
23222;SDS011;11780;13.904;100.620;2022-08-19T01:00:17;999.13;;;927.30;;
23222;SDS011;11780;13.904;100.620;2022-08-19T01:02:48;1021.28;;;949.22;;
23222;SDS011;11780;13.904;100.620;2022-08-19T01:05:20;1001.33;;;930.27;;
23222;SDS011;11780;13.904;100.620;2022-08-19T01:07:54;998.63;;;927.58;;
23222;SDS011;11780;13.904;100.620;2022-08-19T01:10:27;1023.35;;;951.50;;
23222;SDS011;11780;13.904;100.620;2022-08-19T01:13:03;1031.47;;;960.03;;
23222;SDS011;11780;13.904;100.620;2022-08-19T01:15:45;1025.35;;;952.95;;
23222;SDS011;11780;13.904;100.620;2022-08-19T01:18:18;1018.40;;;946.15;;
23222;SDS011;11780;13.904;100.620;2022-08-19T01:23:20;1010.20;;;938.40;;
23222;SDS011;11780;13.904;100.620;2022-08-19T01:25:51;1006.77;;;934.90;;
23222;SDS011;11780;13.904;100.620;2022-08-19T01:28:26;1016.83;;;944.75;;
23222;SDS011;11780;13.904;100.620;2022-08-19T01:31:06;1011.05;;;938.90;;
23222;SDS011;11780;13.904;100.620;2022-08-19T01:33:54;1020.03;;;947.47;;
23222;SDS011;11780;13.904;100.620;2022-08-19T01:36:35;1014.85;;;942.33;;
23222;SDS011;11780;13.904;100.620;2022-08-19T01:39:09;1004.10;;;931.33;;
23222;SDS011;11780;13.904;100.620;2022-08-19T01:41:42;1025.72;;;952.72;;
23222;SDS011;11780;13.904;100.620;2022-08-19T01:44:14;1033.10;;;959.88;;
23222;SDS011;11780;13.904;100.620;2022-08-19T01:46:46;1024.50;;;951.08;;
23222;SDS011;11780;13.904;100.620;2022-08-19T01:49:19;1035.88;;;962.30;;
23222;SDS011;11780;13.904;100.620;2022-08-19T01:51:52;1020.30;;;947.63;;
23222;SDS011;11780;13.904;100.620;2022-08-19T01:54:23;1003.08;;;931.08;;
23222;SDS011;11780;13.904;100.620;2022-08-19T01:56:58;1038.45;;;964.53;;
23222;SDS011;11780;13.904;100.620;2022-08-19T01:59:33;1020.58;;;948.17;;
23222;SDS011;11780;13.904;100.620;2022-08-19T02:02:05;1034.28;;;960.67;;
23222;SDS011;11780;13.904;100.620;2022-08-19T02:04:39;1037.50;;;963.15;;
23222;SDS011;11780;13.904;100.620;2022-08-19T02:07:10;1004.45;;;931.97;;
23222;SDS011;11780;13.904;100.620;2022-08-19T02:09:40;988.13;;;923.05;;
23222;SDS011;11780;13.904;100.620;2022-08-19T02:12:10;1009.15;;;941.83;;
23222;SDS011;11780;13.904;100.620;2022-08-19T02:14:40;1000.92;;;933.75;;
23222;SDS011;11780;13.904;100.620;2022-08-19T02:17:10;944.10;;;881.88;;
23222;SDS011;11780;13.904;100.620;2022-08-19T02:19:41;965.65;;;902.92;;
23222;SDS011;11780;13.904;100.620;2022-08-19T02:22:11;941.58;;;879.75;;
23222;SDS011;11780;13.904;100.620;2022-08-19T02:24:41;822.08;;;767.70;;
23222;SDS011;11780;13.904;100.620;2022-08-19T02:27:11;1034.63;;;961.05;;
23222;SDS011;11780;13.904;100.620;2022-08-19T02:29:42;1024.20;;;951.70;;
23222;SDS011;11780;13.904;100.620;2022-08-19T02:32:12;1004.45;;;933.38;;
23222;SDS011;11780;13.904;100.620;2022-08-19T02:34:43;998.58;;;929.97;;
23222;SDS011;11780;13.904;100.620;2022-08-19T02:37:13;1003.30;;;933.45;;
23222;SDS011;11780;13.904;100.620;2022-08-19T02:40:02;1008.42;;;937.28;;
23222;SDS011;11780;13.904;100.620;2022-08-19T02:42:39;970.90;;;906.13;;
23222;SDS011;11780;13.904;100.620;2022-08-19T02:45:10;960.78;;;897.40;;
23222;SDS011;11780;13.904;100.620;2022-08-19T02:47:41;964.20;;;900.03;;
23222;SDS011;11780;13.904;100.620;2022-08-19T02:50:11;1001.42;;;934.67;;
23222;SDS011;11780;13.904;100.620;2022-08-19T02:55:12;1005.90;;;935.90;;
23222;SDS011;11780;13.904;100.620;2022-08-19T02:57:43;972.90;;;908.28;;
23222;SDS011;11780;13.904;100.620;2022-08-19T03:00:13;950.70;;;888.27;;
23222;SDS011;11780;13.904;100.620;2022-08-19T03:02:44;982.03;;;916.00;;
23222;SDS011;11780;13.904;100.620;2022-08-19T03:05:16;989.88;;;922.60;;
23222;SDS011;11780;13.904;100.620;2022-08-19T03:09:37;108.13;;;100.65;;
23222;SDS011;11780;13.904;100.620;2022-08-19T03:12:08;311.50;;;293.50;;
23222;SDS011;11780;13.904;100.620;2022-08-19T03:14:38;843.28;;;784.88;;
23222;SDS011;11780;13.904;100.620;2022-08-19T03:17:08;799.10;;;749.67;;
23222;SDS011;11780;13.904;100.620;2022-08-19T03:19:39;837.42;;;778.03;;
23222;SDS011;11780;13.904;100.620;2022-08-19T03:22:10;863.97;;;803.75;;
23222;SDS011;11780;13.904;100.620;2022-08-19T03:24:40;792.40;;;744.38;;
23222;SDS011;11780;13.904;100.620;2022-08-19T03:27:10;11.60;;;4.38;;
23222;SDS011;11780;13.904;100.620;2022-08-19T03:29:41;12.32;;;5.40;;
23222;SDS011;11780;13.904;100.620;2022-08-19T03:32:12;11.77;;;5.17;;
23222;SDS011;11780;13.904;100.620;2022-08-19T03:34:59;25.50;;;23.25;;
23222;SDS011;11780;13.904;100.620;2022-08-19T03:37:29;32.47;;;26.90;;
23222;SDS011;11780;13.904;100.620;2022-08-19T03:39:59;77.20;;;71.45;;
23222;SDS011;11780;13.904;100.620;2022-08-19T03:42:32;19.55;;;7.30;;
23222;SDS011;11780;13.904;100.620;2022-08-19T03:45:15;11.40;;;4.57;;
23222;SDS011;11780;13.904;100.620;2022-08-19T03:47:46;19.02;;;9.63;;
23222;SDS011;11780;13.904;100.620;2022-08-19T03:50:17;65.85;;;61.33;;
23222;SDS011;11780;13.904;100.620;2022-08-19T03:52:51;18.95;;;7.97;;
23222;SDS011;11780;13.904;100.620;2022-08-19T03:55:22;17.33;;;7.28;;
23222;SDS011;11780;13.904;100.620;2022-08-19T03:57:52;15.87;;;8.43;;
23222;SDS011;11780;13.904;100.620;2022-08-19T04:00:25;21.55;;;8.60;;
23222;SDS011;11780;13.904;100.620;2022-08-19T04:02:56;17.88;;;7.55;;
23222;SDS011;11780;13.904;100.620;2022-08-19T04:05:27;11.53;;;5.77;;
23222;SDS011;11780;13.904;100.620;2022-08-19T04:07:58;12.05;;;4.88;;
23222;SDS011;11780;13.904;100.620;2022-08-19T04:10:29;10.48;;;4.47;;
23222;SDS011;11780;13.904;100.620;2022-08-19T04:13:00;15.52;;;5.28;;
23222;SDS011;11780;13.904;100.620;2022-08-19T04:15:31;12.43;;;4.90;;
23222;SDS011;11780;13.904;100.620;2022-08-19T04:18:08;15.77;;;6.60;;
23222;SDS011;11780;13.904;100.620;2022-08-19T04:20:43;15.27;;;7.15;;
23222;SDS011;11780;13.904;100.620;2022-08-19T04:23:16;13.63;;;5.47;;
23222;SDS011;11780;13.904;100.620;2022-08-19T09:34:46;10.38;;;4.78;;
23222;SDS011;11780;13.904;100.620;2022-08-19T09:37:17;10.88;;;4.25;;
23222;SDS011;11780;13.904;100.620;2022-08-19T09:39:50;5.60;;;3.88;;
23222;SDS011;11780;13.904;100.620;2022-08-19T09:42:21;8.50;;;4.65;;
23222;SDS011;11780;13.904;100.620;2022-08-19T09:44:56;4.65;;;4.13;;
23222;SDS011;11780;13.904;100.620;2022-08-19T09:47:31;8.20;;;4.32;;
23222;SDS011;11780;13.904;100.620;2022-08-19T09:50:08;8.18;;;4.85;;
23222;SDS011;11780;13.904;100.620;2022-08-19T09:52:42;7.50;;;4.32;;
23222;SDS011;11780;13.904;100.620;2022-08-19T09:55:24;11.52;;;5.03;;
23222;SDS011;11780;13.904;100.620;2022-08-19T09:58:01;7.13;;;5.40;;
23222;SDS011;11780;13.904;100.620;2022-08-19T10:00:31;8.68;;;6.13;;
23222;SDS011;11780;13.904;100.620;2022-08-19T10:03:02;7.32;;;4.32;;
23222;SDS011;11780;13.904;100.620;2022-08-19T10:05:34;6.90;;;5.60;;
23222;SDS011;11780;13.904;100.620;2022-08-19T10:08:23;8.30;;;5.68;;
23222;SDS011;11780;13.904;100.620;2022-08-19T10:10:55;11.45;;;5.70;;
23222;SDS011;11780;13.904;100.620;2022-08-19T10:13:46;10.70;;;5.77;;
23222;SDS011;11780;13.904;100.620;2022-08-19T10:16:18;8.77;;;5.75;;
23222;SDS011;11780;13.904;100.620;2022-08-19T10:18:56;9.75;;;6.10;;
23222;SDS011;11780;13.904;100.620;2022-08-19T10:21:32;10.05;;;5.55;;
23222;SDS011;11780;13.904;100.620;2022-08-19T10:24:06;9.20;;;5.00;;
23222;SDS011;11780;13.904;100.620;2022-08-19T10:26:38;11.90;;;5.33;;
23222;SDS011;11780;13.904;100.620;2022-08-19T10:29:13;6.38;;;4.95;;
23222;SDS011;11780;13.904;100.620;2022-08-19T10:32:00;10.88;;;5.10;;
23222;SDS011;11780;13.904;100.620;2022-08-19T10:34:36;9.98;;;5.25;;
23222;SDS011;11780;13.904;100.620;2022-08-19T10:37:15;8.30;;;4.47;;
23222;SDS011;11780;13.904;100.620;2022-08-19T10:39:57;8.07;;;4.75;;
23222;SDS011;11780;13.904;100.620;2022-08-19T10:42:27;10.27;;;5.00;;
23222;SDS011;11780;13.904;100.620;2022-08-19T10:45:00;10.13;;;4.65;;
23222;SDS011;11780;13.904;100.620;2022-08-19T10:47:31;8.82;;;4.43;;
23222;SDS011;11780;13.904;100.620;2022-08-19T10:50:02;8.43;;;4.32;;
23222;SDS011;11780;13.904;100.620;2022-08-19T10:52:56;10.20;;;4.38;;
23222;SDS011;11780;13.904;100.620;2022-08-19T10:55:26;9.20;;;5.03;;
23222;SDS011;11780;13.904;100.620;2022-08-19T10:58:16;10.98;;;4.78;;
23222;SDS011;11780;13.904;100.620;2022-08-19T11:00:53;10.73;;;4.80;;
23222;SDS011;11780;13.904;100.620;2022-08-19T11:03:27;11.82;;;5.28;;
23222;SDS011;11780;13.904;100.620;2022-08-19T11:05:59;14.85;;;5.57;;
23222;SDS011;11780;13.904;100.620;2022-08-19T11:08:31;7.43;;;4.90;;
23222;SDS011;11780;13.904;100.620;2022-08-19T11:11:02;8.57;;;4.18;;
23222;SDS011;11780;13.904;100.620;2022-08-19T11:13:35;10.15;;;4.60;;
23222;SDS011;11780;13.904;100.620;2022-08-19T11:16:11;10.70;;;4.75;;
23222;SDS011;11780;13.904;100.620;2022-08-19T11:18:50;10.88;;;4.68;;
23222;SDS011;11780;13.904;100.620;2022-08-19T11:21:24;7.45;;;3.75;;
23222;SDS011;11780;13.904;100.620;2022-08-19T11:24:17;8.60;;;3.90;;
23222;SDS011;11780;13.904;100.620;2022-08-19T11:26:52;5.53;;;4.22;;
23222;SDS011;11780;13.904;100.620;2022-08-19T11:29:28;6.15;;;3.90;;
23222;SDS011;11780;13.904;100.620;2022-08-19T11:31:58;4.47;;;3.60;;
23222;SDS011;11780;13.904;100.620;2022-08-19T11:34:30;3.67;;;3.00;;
23222;SDS011;11780;13.904;100.620;2022-08-19T11:37:01;5.43;;;3.60;;
23222;SDS011;11780;13.904;100.620;2022-08-19T11:39:33;8.23;;;3.50;;
23222;SDS011;11780;13.904;100.620;2022-08-19T11:42:06;5.55;;;3.72;;
23222;SDS011;11780;13.904;100.620;2022-08-19T11:44:55;7.47;;;3.92;;
23222;SDS011;11780;13.904;100.620;2022-08-19T11:47:26;7.40;;;3.80;;
23222;SDS011;11780;13.904;100.620;2022-08-19T11:49:57;8.30;;;3.67;;
23222;SDS011;11780;13.904;100.620;2022-08-19T11:52:27;6.53;;;3.70;;
23222;SDS011;11780;13.904;100.620;2022-08-19T11:54:58;7.43;;;3.92;;
23222;SDS011;11780;13.904;100.620;2022-08-19T11:57:28;6.22;;;3.10;;
23222;SDS011;11780;13.904;100.620;2022-08-19T11:59:58;6.90;;;4.10;;
23222;SDS011;11780;13.904;100.620;2022-08-19T12:02:30;5.55;;;2.78;;
23222;SDS011;11780;13.904;100.620;2022-08-19T12:05:01;5.15;;;2.90;;
23222;SDS011;11780;13.904;100.620;2022-08-19T12:07:38;6.18;;;2.88;;
23222;SDS011;11780;13.904;100.620;2022-08-19T12:10:10;4.80;;;2.85;;
23222;SDS011;11780;13.904;100.620;2022-08-19T12:12:45;4.35;;;2.80;;
23222;SDS011;11780;13.904;100.620;2022-08-19T12:15:25;3.97;;;3.00;;
23222;SDS011;11780;13.904;100.620;2022-08-19T12:18:04;5.65;;;3.35;;
23222;SDS011;11780;13.904;100.620;2022-08-19T12:20:35;5.15;;;3.03;;
23222;SDS011;11780;13.904;100.620;2022-08-19T12:23:07;5.43;;;3.08;;
23222;SDS011;11780;13.904;100.620;2022-08-19T12:25:44;6.47;;;2.85;;
23222;SDS011;11780;13.904;100.620;2022-08-19T12:28:19;5.10;;;2.95;;
23222;SDS011;11780;13.904;100.620;2022-08-19T12:30:52;9.88;;;4.13;;
23222;SDS011;11780;13.904;100.620;2022-08-19T12:33:22;3.58;;;3.28;;
23222;SDS011;11780;13.904;100.620;2022-08-19T12:35:59;8.45;;;3.33;;
23222;SDS011;11780;13.904;100.620;2022-08-19T12:38:31;4.95;;;3.17;;
23222;SDS011;11780;13.904;100.620;2022-08-19T12:41:04;5.32;;;3.45;;
23222;SDS011;11780;13.904;100.620;2022-08-19T12:43:36;5.18;;;2.92;;
23222;SDS011;11780;13.904;100.620;2022-08-19T12:46:07;9.82;;;3.88;;
23222;SDS011;11780;13.904;100.620;2022-08-19T12:48:39;4.90;;;3.33;;
23222;SDS011;11780;13.904;100.620;2022-08-19T12:51:13;5.60;;;3.50;;
23222;SDS011;11780;13.904;100.620;2022-08-19T12:53:46;4.50;;;2.97;;
23222;SDS011;11780;13.904;100.620;2022-08-19T12:56:17;4.90;;;2.85;;
23222;SDS011;11780;13.904;100.620;2022-08-19T12:58:49;8.38;;;3.53;;
23222;SDS011;11780;13.904;100.620;2022-08-19T13:01:20;6.63;;;3.58;;
23222;SDS011;11780;13.904;100.620;2022-08-19T13:03:50;6.33;;;3.10;;
23222;SDS011;11780;13.904;100.620;2022-08-19T13:06:24;3.70;;;2.95;;
23222;SDS011;11780;13.904;100.620;2022-08-19T13:08:55;6.50;;;3.50;;
23222;SDS011;11780;13.904;100.620;2022-08-19T13:11:26;6.03;;;3.65;;
23222;SDS011;11780;13.904;100.620;2022-08-19T13:14:02;5.93;;;3.72;;
23222;SDS011;11780;13.904;100.620;2022-08-19T13:16:33;8.23;;;4.32;;
23222;SDS011;11780;13.904;100.620;2022-08-19T13:19:03;11.33;;;5.03;;
23222;SDS011;11780;13.904;100.620;2022-08-19T13:21:34;5.43;;;4.05;;
23222;SDS011;11780;13.904;100.620;2022-08-19T13:24:08;14.52;;;5.70;;
23222;SDS011;11780;13.904;100.620;2022-08-19T13:26:39;9.90;;;4.57;;
23222;SDS011;11780;13.904;100.620;2022-08-19T13:29:09;9.13;;;4.57;;
23222;SDS011;11780;13.904;100.620;2022-08-19T13:31:58;9.30;;;4.10;;
23222;SDS011;11780;13.904;100.620;2022-08-19T13:34:48;12.93;;;4.90;;
23222;SDS011;11780;13.904;100.620;2022-08-19T13:37:18;7.80;;;4.75;;
23222;SDS011;11780;13.904;100.620;2022-08-19T13:40:10;10.10;;;5.18;;
23222;SDS011;11780;13.904;100.620;2022-08-19T13:42:46;9.02;;;5.15;;
23222;SDS011;11780;13.904;100.620;2022-08-19T13:45:19;13.70;;;5.38;;
23222;SDS011;11780;13.904;100.620;2022-08-19T13:47:52;7.85;;;4.53;;
23222;SDS011;11780;13.904;100.620;2022-08-19T13:50:27;7.00;;;5.07;;
23222;SDS011;11780;13.904;100.620;2022-08-19T13:53:00;5.43;;;3.90;;
23222;SDS011;11780;13.904;100.620;2022-08-19T13:55:31;8.27;;;4.07;;
23222;SDS011;11780;13.904;100.620;2022-08-19T13:58:01;6.03;;;4.18;;
23222;SDS011;11780;13.904;100.620;2022-08-19T14:00:34;7.03;;;5.22;;
23222;SDS011;11780;13.904;100.620;2022-08-19T14:03:07;10.25;;;4.68;;
23222;SDS011;11780;13.904;100.620;2022-08-19T14:05:37;7.53;;;4.07;;
23222;SDS011;11780;13.904;100.620;2022-08-19T14:08:08;6.80;;;4.43;;
23222;SDS011;11780;13.904;100.620;2022-08-19T14:10:38;8.00;;;4.60;;
23222;SDS011;11780;13.904;100.620;2022-08-19T14:13:10;8.43;;;4.63;;
23222;SDS011;11780;13.904;100.620;2022-08-19T14:15:44;7.40;;;5.03;;
23222;SDS011;11780;13.904;100.620;2022-08-19T14:18:16;6.60;;;4.78;;
23222;SDS011;11780;13.904;100.620;2022-08-19T14:20:47;8.23;;;4.50;;
23222;SDS011;11780;13.904;100.620;2022-08-19T14:23:18;8.10;;;4.13;;
23222;SDS011;11780;13.904;100.620;2022-08-19T14:25:49;7.60;;;4.05;;
23222;SDS011;11780;13.904;100.620;2022-08-19T14:28:19;6.70;;;4.75;;
23222;SDS011;11780;13.904;100.620;2022-08-19T14:30:54;7.70;;;4.55;;
23222;SDS011;11780;13.904;100.620;2022-08-19T14:33:24;7.93;;;4.37;;
23222;SDS011;11780;13.904;100.620;2022-08-19T14:35:56;5.55;;;4.20;;
23222;SDS011;11780;13.904;100.620;2022-08-19T14:38:27;5.55;;;4.15;;
23222;SDS011;11780;13.904;100.620;2022-08-19T14:41:07;8.07;;;4.85;;
23222;SDS011;11780;13.904;100.620;2022-08-19T14:43:46;8.25;;;4.38;;
23222;SDS011;11780;13.904;100.620;2022-08-19T14:46:20;8.52;;;4.57;;
23222;SDS011;11780;13.904;100.620;2022-08-19T14:48:55;6.75;;;4.18;;
23222;SDS011;11780;13.904;100.620;2022-08-19T14:51:26;6.57;;;4.22;;
23222;SDS011;11780;13.904;100.620;2022-08-19T14:53:56;9.33;;;4.20;;
23222;SDS011;11780;13.904;100.620;2022-08-19T14:56:28;5.40;;;4.57;;
23222;SDS011;11780;13.904;100.620;2022-08-19T14:58:59;6.45;;;4.43;;
23222;SDS011;11780;13.904;100.620;2022-08-19T15:01:30;9.17;;;4.30;;
23222;SDS011;11780;13.904;100.620;2022-08-19T15:04:00;7.95;;;4.93;;
23222;SDS011;11780;13.904;100.620;2022-08-19T15:06:31;7.57;;;4.67;;
23222;SDS011;11780;13.904;100.620;2022-08-19T15:09:02;10.48;;;6.07;;
23222;SDS011;11780;13.904;100.620;2022-08-19T15:11:33;9.13;;;4.93;;
23222;SDS011;11780;13.904;100.620;2022-08-19T15:14:03;8.50;;;5.70;;
23222;SDS011;11780;13.904;100.620;2022-08-19T15:16:34;9.57;;;6.20;;
23222;SDS011;11780;13.904;100.620;2022-08-19T15:19:07;14.98;;;6.95;;
23222;SDS011;11780;13.904;100.620;2022-08-19T15:21:38;15.60;;;6.97;;
23222;SDS011;11780;13.904;100.620;2022-08-19T15:24:08;11.63;;;6.22;;
23222;SDS011;11780;13.904;100.620;2022-08-19T15:26:40;19.77;;;7.00;;
23222;SDS011;11780;13.904;100.620;2022-08-19T15:29:12;17.95;;;7.25;;
23222;SDS011;11780;13.904;100.620;2022-08-19T15:31:45;15.13;;;6.47;;
23222;SDS011;11780;13.904;100.620;2022-08-19T15:34:15;14.32;;;7.03;;
23222;SDS011;11780;13.904;100.620;2022-08-19T15:36:46;13.87;;;7.00;;
23222;SDS011;11780;13.904;100.620;2022-08-19T15:39:16;11.13;;;6.07;;
23222;SDS011;11780;13.904;100.620;2022-08-19T15:41:47;15.10;;;6.68;;
23222;SDS011;11780;13.904;100.620;2022-08-19T15:44:18;17.23;;;11.80;;
23222;SDS011;11780;13.904;100.620;2022-08-19T15:46:50;10.38;;;7.03;;
23222;SDS011;11780;13.904;100.620;2022-08-19T15:49:21;16.60;;;7.47;;
23222;SDS011;11780;13.904;100.620;2022-08-19T15:51:51;17.83;;;6.35;;
23222;SDS011;11780;13.904;100.620;2022-08-19T15:54:22;10.82;;;5.88;;
23222;SDS011;11780;13.904;100.620;2022-08-19T15:56:53;13.10;;;7.03;;
23222;SDS011;11780;13.904;100.620;2022-08-19T15:59:42;10.77;;;6.38;;
23222;SDS011;11780;13.904;100.620;2022-08-19T16:02:31;11.35;;;6.70;;
23222;SDS011;11780;13.904;100.620;2022-08-19T16:05:22;11.20;;;7.00;;
23222;SDS011;11780;13.904;100.620;2022-08-19T16:08:13;12.55;;;6.80;;
23222;SDS011;11780;13.904;100.620;2022-08-19T16:10:43;12.67;;;6.80;;
23222;SDS011;11780;13.904;100.620;2022-08-19T16:13:13;15.07;;;7.05;;
23222;SDS011;11780;13.904;100.620;2022-08-19T16:15:43;12.43;;;6.63;;
23222;SDS011;11780;13.904;100.620;2022-08-19T16:18:14;14.77;;;6.87;;
23222;SDS011;11780;13.904;100.620;2022-08-19T16:20:44;11.50;;;6.70;;
23222;SDS011;11780;13.904;100.620;2022-08-19T16:23:15;11.13;;;6.63;;
23222;SDS011;11780;13.904;100.620;2022-08-19T16:25:45;11.43;;;7.00;;
23222;SDS011;11780;13.904;100.620;2022-08-19T16:28:15;13.77;;;7.13;;
23222;SDS011;11780;13.904;100.620;2022-08-19T16:30:45;10.38;;;7.38;;
23222;SDS011;11780;13.904;100.620;2022-08-19T16:33:17;11.68;;;7.18;;
23222;SDS011;11780;13.904;100.620;2022-08-19T16:35:49;14.07;;;7.43;;
23222;SDS011;11780;13.904;100.620;2022-08-19T16:38:33;11.07;;;7.32;;
23222;SDS011;11780;13.904;100.620;2022-08-19T16:41:05;12.65;;;7.25;;
23222;SDS011;11780;13.904;100.620;2022-08-19T16:43:40;10.80;;;6.40;;
23222;SDS011;11780;13.904;100.620;2022-08-19T16:46:11;12.45;;;6.55;;
23222;SDS011;11780;13.904;100.620;2022-08-19T16:48:46;12.40;;;7.18;;
23222;SDS011;11780;13.904;100.620;2022-08-19T16:51:16;11.93;;;6.78;;
23222;SDS011;11780;13.904;100.620;2022-08-19T16:56:18;12.00;;;7.43;;
23222;SDS011;11780;13.904;100.620;2022-08-19T16:58:49;14.02;;;6.85;;
23222;SDS011;11780;13.904;100.620;2022-08-19T17:01:20;13.83;;;6.60;;
23222;SDS011;11780;13.904;100.620;2022-08-19T17:03:52;10.77;;;6.47;;
23222;SDS011;11780;13.904;100.620;2022-08-19T17:06:24;11.10;;;6.47;;
23222;SDS011;11780;13.904;100.620;2022-08-19T17:08:58;7.28;;;5.55;;
23222;SDS011;11780;13.904;100.620;2022-08-19T17:11:30;14.10;;;6.40;;
23222;SDS011;11780;13.904;100.620;2022-08-19T17:14:03;13.00;;;5.90;;
23222;SDS011;11780;13.904;100.620;2022-08-19T17:16:35;9.27;;;6.25;;
23222;SDS011;11780;13.904;100.620;2022-08-19T17:19:06;9.25;;;5.35;;
23222;SDS011;11780;13.904;100.620;2022-08-19T17:24:08;9.57;;;5.63;;
23222;SDS011;11780;13.904;100.620;2022-08-19T17:26:39;7.30;;;5.10;;
23222;SDS011;11780;13.904;100.620;2022-08-19T17:29:09;9.77;;;5.40;;
23222;SDS011;11780;13.904;100.620;2022-08-19T17:31:40;11.30;;;5.60;;
23222;SDS011;11780;13.904;100.620;2022-08-19T17:34:10;10.95;;;5.88;;
23222;SDS011;11780;13.904;100.620;2022-08-19T17:36:40;7.43;;;5.40;;
23222;SDS011;11780;13.904;100.620;2022-08-19T17:39:10;8.65;;;4.75;;
23222;SDS011;11780;13.904;100.620;2022-08-19T17:41:41;10.55;;;5.18;;
23222;SDS011;11780;13.904;100.620;2022-08-19T17:44:12;9.07;;;4.53;;
23222;SDS011;11780;13.904;100.620;2022-08-19T17:46:42;9.10;;;4.97;;
23222;SDS011;11780;13.904;100.620;2022-08-19T17:49:14;7.63;;;4.18;;
23222;SDS011;11780;13.904;100.620;2022-08-19T17:51:46;9.23;;;4.97;;
23222;SDS011;11780;13.904;100.620;2022-08-19T17:54:18;9.75;;;4.80;;
23222;SDS011;11780;13.904;100.620;2022-08-19T17:56:48;7.27;;;4.47;;
23222;SDS011;11780;13.904;100.620;2022-08-19T17:59:18;9.90;;;5.18;;
23222;SDS011;11780;13.904;100.620;2022-08-19T18:01:54;7.50;;;4.53;;
23222;SDS011;11780;13.904;100.620;2022-08-19T18:04:26;9.25;;;4.63;;
23222;SDS011;11780;13.904;100.620;2022-08-19T18:07:00;8.90;;;4.57;;
23222;SDS011;11780;13.904;100.620;2022-08-19T18:09:33;8.68;;;3.95;;
23222;SDS011;11780;13.904;100.620;2022-08-19T18:12:09;7.40;;;4.25;;
23222;SDS011;11780;13.904;100.620;2022-08-19T18:14:41;6.28;;;3.85;;
23222;SDS011;11780;13.904;100.620;2022-08-19T18:17:12;7.45;;;3.83;;
23222;SDS011;11780;13.904;100.620;2022-08-19T18:19:46;7.40;;;4.45;;
23222;SDS011;11780;13.904;100.620;2022-08-19T18:22:29;8.80;;;4.38;;
23222;SDS011;11780;13.904;100.620;2022-08-19T18:25:09;8.60;;;4.50;;
23222;SDS011;11780;13.904;100.620;2022-08-19T18:27:54;7.03;;;4.30;;
23222;SDS011;11780;13.904;100.620;2022-08-19T18:30:28;7.03;;;4.15;;
23222;SDS011;11780;13.904;100.620;2022-08-19T18:33:03;10.40;;;4.60;;
23222;SDS011;11780;13.904;100.620;2022-08-19T18:35:42;8.50;;;3.78;;
23222;SDS011;11780;13.904;100.620;2022-08-19T18:38:15;5.88;;;3.92;;
23222;SDS011;11780;13.904;100.620;2022-08-19T18:41:06;5.93;;;3.83;;
23222;SDS011;11780;13.904;100.620;2022-08-19T18:43:55;6.97;;;3.95;;
23222;SDS011;11780;13.904;100.620;2022-08-19T18:46:43;9.70;;;3.72;;
23222;SDS011;11780;13.904;100.620;2022-08-19T18:49:32;7.53;;;4.18;;
23222;SDS011;11780;13.904;100.620;2022-08-19T18:52:03;7.55;;;4.30;;
23222;SDS011;11780;13.904;100.620;2022-08-19T18:54:34;9.55;;;4.22;;
23222;SDS011;11780;13.904;100.620;2022-08-19T18:57:04;7.85;;;3.83;;
23222;SDS011;11780;13.904;100.620;2022-08-19T18:59:37;8.73;;;4.47;;
23222;SDS011;11780;13.904;100.620;2022-08-19T19:02:12;7.57;;;4.45;;
23222;SDS011;11780;13.904;100.620;2022-08-19T19:04:47;10.18;;;4.88;;
23222;SDS011;11780;13.904;100.620;2022-08-19T19:07:18;8.65;;;4.18;;
23222;SDS011;11780;13.904;100.620;2022-08-19T19:09:49;6.35;;;4.55;;
23222;SDS011;11780;13.904;100.620;2022-08-19T19:12:19;5.78;;;3.90;;
23222;SDS011;11780;13.904;100.620;2022-08-19T19:14:51;9.73;;;4.78;;
23222;SDS011;11780;13.904;100.620;2022-08-19T19:19:56;7.28;;;4.15;;
23222;SDS011;11780;13.904;100.620;2022-08-19T19:22:26;9.45;;;4.05;;
23222;SDS011;11780;13.904;100.620;2022-08-19T19:24:56;8.00;;;4.50;;
23222;SDS011;11780;13.904;100.620;2022-08-19T19:27:27;4.88;;;3.90;;
23222;SDS011;11780;13.904;100.620;2022-08-19T19:29:57;9.18;;;3.92;;
23222;SDS011;11780;13.904;100.620;2022-08-19T19:32:28;7.65;;;4.10;;
23222;SDS011;11780;13.904;100.620;2022-08-19T19:35:06;8.23;;;4.20;;
23222;SDS011;11780;13.904;100.620;2022-08-19T19:37:38;8.20;;;3.70;;
23222;SDS011;11780;13.904;100.620;2022-08-19T19:40:11;9.82;;;4.20;;
23222;SDS011;11780;13.904;100.620;2022-08-19T19:42:41;12.77;;;4.78;;
23222;SDS011;11780;13.904;100.620;2022-08-19T19:45:11;10.52;;;4.65;;
23222;SDS011;11780;13.904;100.620;2022-08-19T19:47:42;7.27;;;4.03;;
23222;SDS011;11780;13.904;100.620;2022-08-19T19:50:12;5.93;;;4.17;;
23222;SDS011;11780;13.904;100.620;2022-08-19T19:52:44;8.23;;;3.92;;
23222;SDS011;11780;13.904;100.620;2022-08-19T19:55:15;8.95;;;4.72;;
23222;SDS011;11780;13.904;100.620;2022-08-19T19:57:49;8.43;;;4.72;;
23222;SDS011;11780;13.904;100.620;2022-08-19T20:00:21;7.10;;;4.13;;
23222;SDS011;11780;13.904;100.620;2022-08-19T20:02:53;5.68;;;3.90;;
23222;SDS011;11780;13.904;100.620;2022-08-19T20:05:24;11.93;;;4.13;;